Terminal Aerodrome Forecast
Issued by NWS

Home | Current Version | Previous Version | Text Only | Print | Product List | Glossary On
Versions: 1 2 3 4 5 6 7 8 9 10 11 12 13 14 15 16 17 18 19 20 21 22 23 24 25 26 27 28 29 30 31 32 33 34
000
FTUS42 KCAE 310231 AAA
TAFCUB
TAF AMD
KCUB 310231Z 3103/3124 VRB03KT P6SM SCT060 BKN150
     FM311200 05005KT P6SM SCT250
     FM311800 05005KT P6SM SCT050 SCT250=

USA.gov is the U.S. government's official web portal to all federal, state and local government web resources and services.